Time;durP1;ratioP1;P1;durP2;ratioP2;P2;SDS_P1;SDS_P2;PMS_P1;PMS_P2;Temp;Humidity;BMP_temperature;BMP_pressure;BME280_temperature;BME280_humidity;BME280_pressure;Samples;Min_cycle;Max_cycle;Signal;HPM_P1;HPM_P2
2021/03/15 00:00:19;;;;;;;54.47;26.23;;;;;;;0.54;79.73;97666.11;124983;1112;23249;-85
2021/03/15 00:03:06;;;;;;;37.90;18.97;;;;;;;0.54;80.22;97666.11;125047;1111;23099;-84
2021/03/15 00:05:32;;;;;;;56.63;27.40;;;;;;;0.52;79.15;97666.30;125127;1112;23696;-85
2021/03/15 00:07:59;;;;;;;54.40;26.43;;;;;;;0.53;79.64;97662.61;124919;1112;23250;-85
2021/03/15 00:10:26;;;;;;;46.35;23.70;;;;;;;0.58;80.12;97669.20;124979;1111;23041;-85
2021/03/15 00:12:53;;;;;;;49.27;22.77;;;;;;;0.59;79.05;97668.20;124733;1112;26382;-85
2021/03/15 00:15:21;;;;;;;59.80;26.43;;;;;;;0.62;78.99;97673.98;125031;1111;23168;-85
2021/03/15 00:17:48;;;;;;;55.45;26.50;;;;;;;0.63;79.11;97678.30;125115;1111;23248;-85
2021/03/15 00:20:17;;;;;;;59.00;29.20;;;;;;;0.67;78.80;97679.53;124977;1112;23212;-85
2021/03/15 00:22:47;;;;;;;53.00;25.25;;;;;;;0.70;79.42;97687.17;124887;1112;23174;-85
2021/03/15 00:25:15;;;;;;;57.70;24.12;;;;;;;0.73;80.03;97680.61;124933;1111;26421;-85
2021/03/15 00:27:43;;;;;;;55.30;25.80;;;;;;;0.78;79.92;97686.19;124921;1112;25967;-85
2021/03/15 00:30:12;;;;;;;54.63;26.37;;;;;;;0.80;78.70;97684.13;124901;1112;23097;-85
2021/03/15 00:32:40;;;;;;;59.07;28.13;;;;;;;0.80;79.62;97675.24;125084;1112;26179;-86
2021/03/15 00:35:09;;;;;;;56.97;25.93;;;;;;;0.83;79.36;97672.17;125024;1110;23097;-85
2021/03/15 00:37:37;;;;;;;51.70;23.75;;;;;;;0.83;80.23;97678.34;125075;1112;23173;-85
2021/03/15 00:40:06;;;;;;;50.40;25.60;;;;;;;0.85;79.13;97675.47;125018;1111;23096;-85
2021/03/15 00:42:33;;;;;;;53.70;25.20;;;;;;;0.84;78.95;97676.52;124995;1112;27412;-86
2021/03/15 00:45:00;;;;;;;55.30;26.23;;;;;;;0.82;78.56;97671.34;124960;1111;23198;-86
2021/03/15 00:47:27;;;;;;;56.17;27.77;;;;;;;0.84;79.63;97671.97;124958;1112;23094;-86
2021/03/15 00:49:54;;;;;;;51.20;25.43;;;;;;;0.89;79.65;97674.88;125047;1112;23041;-86
2021/03/15 00:52:20;;;;;;;48.57;25.07;;;;;;;0.91;79.48;97672.81;124938;1112;23030;-86
2021/03/15 00:54:47;;;;;;;48.60;25.53;;;;;;;0.93;78.57;97672.61;124801;1112;24831;-86
2021/03/15 00:57:24;;;;;;;53.90;26.13;;;;;;;0.92;79.44;97671.80;124965;1110;23072;-86
2021/03/15 00:59:51;;;;;;;57.43;27.77;;;;;;;0.91;79.48;97672.81;124974;1111;26456;-85
2021/03/15 01:02:18;;;;;;;52.03;27.50;;;;;;;0.90;79.84;97671.17;124993;1112;23215;-86
2021/03/15 01:04:45;;;;;;;45.20;23.90;;;;;;;0.89;78.47;97666.83;124799;1112;23096;-86
2021/03/15 01:07:18;;;;;;;44.77;23.27;;;;;;;0.87;78.24;97670.76;124632;1112;24638;-85
2021/03/15 01:09:46;;;;;;;48.43;23.97;;;;;;;0.83;77.96;97675.66;124698;1112;23092;-85
2021/03/15 01:12:32;;;;;;;51.10;25.00;;;;;;;0.84;78.46;97679.20;124727;1111;23050;-86
2021/03/15 01:14:59;;;;;;;58.73;28.07;;;;;;;0.83;79.72;97680.20;124700;1112;23052;-85
2021/03/15 01:17:32;;;;;;;48.90;26.60;;;;;;;0.83;78.20;97664.94;124689;1111;23049;-85
2021/03/15 01:19:59;;;;;;;54.00;24.63;;;;;;;0.82;78.74;97662.49;124696;1112;23094;-85
2021/03/15 01:22:25;;;;;;;50.50;25.27;;;;;;;0.79;79.24;97657.53;124673;1112;23247;-85
2021/03/15 01:24:52;;;;;;;53.93;25.13;;;;;;;0.72;79.98;97652.96;124673;1112;23049;-85
2021/03/15 01:27:22;;;;;;;56.50;27.00;;;;;;;0.69;79.59;97657.90;124534;1112;24642;-85
2021/03/15 01:29:49;;;;;;;54.50;27.97;;;;;;;0.67;79.95;97649.24;124700;1112;23092;-85
2021/03/15 01:32:15;;;;;;;49.25;25.10;;;;;;;0.66;80.32;97650.29;124624;1112;23042;-84
2021/03/15 01:34:42;;;;;;;37.83;19.03;;;;;;;0.57;78.84;97646.96;124668;1112;24942;-84
2021/03/15 01:37:08;;;;;;;43.53;22.77;;;;;;;0.36;78.79;97638.02;124746;1111;23190;-85
2021/03/15 01:39:35;;;;;;;40.67;20.37;;;;;;;0.16;79.20;97631.73;124680;1112;26530;-85
2021/03/15 01:42:02;;;;;;;52.40;27.40;;;;;;;0.00;80.61;97635.60;124700;1111;23248;-85
2021/03/15 01:44:30;;;;;;;59.83;28.70;;;;;;;-0.03;80.27;97638.66;124660;1110;23099;-85
2021/03/15 01:46:56;;;;;;;47.67;24.63;;;;;;;-0.07;80.37;97635.55;124767;1111;23038;-84
2021/03/15 01:49:23;;;;;;;57.25;26.30;;;;;;;-0.11;80.96;97623.58;124769;1112;23100;-84
2021/03/15 01:51:50;;;;;;;63.23;30.53;;;;;;;-0.11;80.60;97622.75;124684;1112;23098;-84
2021/03/15 01:54:18;;;;;;;60.67;28.93;;;;;;;-0.14;82.49;97620.47;124695;1111;23100;-85
2021/03/15 01:56:46;;;;;;;45.70;21.70;;;;;;;-0.14;83.01;97615.11;124702;1112;24677;-85
2021/03/15 01:59:16;;;;;;;46.77;23.70;;;;;;;-0.11;83.96;97601.34;124567;1112;23126;-85
2021/03/15 02:01:47;;;;;;;46.40;23.23;;;;;;;-0.06;83.83;97606.94;124745;1111;23046;-84
2021/03/15 02:04:15;;;;;;;52.30;23.07;;;;;;;-0.04;84.86;97600.34;124682;1111;23041;-85
2021/03/15 02:06:44;;;;;;;51.63;27.43;;;;;;;0.01;84.61;97601.63;124737;1112;26529;-85
2021/03/15 02:09:12;;;;;;;53.13;27.60;;;;;;;0.03;82.94;97600.38;124675;1112;26421;-85
2021/03/15 02:12:07;;;;;;;48.50;24.10;;;;;;;0.07;83.99;97601.66;124760;1112;27354;-84
2021/03/15 02:15:11;;;;;;;35.65;18.00;;;;;;;0.10;84.15;97597.74;124742;1112;27675;-84
2021/03/15 02:17:43;;;;;;;45.45;25.00;;;;;;;0.07;82.96;97609.69;124600;1112;23087;-84
2021/03/15 02:21:01;;;;;;;66.63;31.20;;;;;;;0.06;83.02;97607.21;124743;1111;26489;-85
2021/03/15 02:23:52;;;;;;;48.43;23.90;;;;;;;0.02;82.94;97596.08;124703;1111;24642;-85
2021/03/15 02:26:56;;;;;;;52.30;24.67;;;;;;;0.05;83.70;97609.03;124720;1112;23164;-85
2021/03/15 02:29:42;;;;;;;45.35;25.45;;;;;;;0.07;83.46;97609.69;124578;1112;26459;-85
2021/03/15 02:32:47;;;;;;;57.30;27.93;;;;;;;0.05;82.71;97609.03;124594;1112;23052;-85
2021/03/15 02:35:21;;;;;;;48.50;23.03;;;;;;;0.04;82.27;97610.08;124602;1112;23044;-85
2021/03/15 02:37:55;;;;;;;41.47;22.80;;;;;;;0.02;81.99;97617.48;124663;1112;23065;-85
2021/03/15 02:41:02;;;;;;;46.17;23.43;;;;;;;0.03;81.71;97618.30;124653;1112;23042;-85
2021/03/15 02:43:38;;;;;;;51.47;26.63;;;;;;;0.06;83.15;97623.27;124515;1112;26396;-86
2021/03/15 02:46:15;;;;;;;47.70;22.83;;;;;;;0.09;81.72;97620.17;124708;1111;23192;-86
2021/03/15 02:48:44;;;;;;;43.83;21.70;;;;;;;0.08;81.84;97621.22;124682;1112;23053;-86
2021/03/15 02:51:12;;;;;;;40.90;20.63;;;;;;;0.07;81.84;97627.58;124731;1112;24540;-86
2021/03/15 02:53:41;;;;;;;48.45;25.15;;;;;;;0.08;82.53;97634.59;124638;1112;27341;-86
2021/03/15 02:56:13;;;;;;;52.93;26.57;;;;;;;0.07;82.13;97633.78;124676;1112;23052;-87
2021/03/15 02:58:41;;;;;;;49.07;24.50;;;;;;;0.10;82.08;97640.58;124466;1112;24064;-87
2021/03/15 03:01:08;;;;;;;45.20;22.43;;;;;;;0.08;81.65;97640.77;124721;1111;26383;-86
2021/03/15 03:03:37;;;;;;;43.13;23.87;;;;;;;0.08;82.94;97635.41;124948;1110;23096;-87
2021/03/15 03:06:05;;;;;;;48.83;25.40;;;;;;;0.08;82.21;97639.95;124754;1112;23056;-87
2021/03/15 03:08:34;;;;;;;57.80;27.60;;;;;;;0.08;81.77;97643.45;124675;1112;23232;-87
2021/03/15 03:11:02;;;;;;;51.33;26.73;;;;;;;0.12;82.11;97649.23;124562;1112;23093;-86
2021/03/15 03:13:32;;;;;;;47.60;22.35;;;;;;;0.14;83.39;97652.53;124542;1112;27646;-87
2021/03/15 03:15:59;;;;;;;53.97;25.83;;;;;;;0.16;83.35;97647.80;124737;1112;23083;-87
2021/03/15 03:18:27;;;;;;;49.90;26.37;;;;;;;0.12;82.68;97644.69;124675;1112;23029;-87
2021/03/15 03:20:56;;;;;;;55.60;29.07;;;;;;;0.16;82.97;97645.97;124712;1112;23068;-87
2021/03/15 03:23:27;;;;;;;50.78;25.30;;;;;;;0.15;81.58;97644.30;124747;1111;23039;-87
2021/03/15 03:25:55;;;;;;;44.20;22.50;;;;;;;0.12;81.87;97658.08;124658;1111;26194;-87
2021/03/15 03:28:23;;;;;;;51.45;24.80;;;;;;;0.09;82.00;97657.65;124659;1112;27884;-87
2021/03/15 03:30:52;;;;;;;49.10;25.27;;;;;;;0.07;81.94;97662.38;124730;1111;23009;-87
2021/03/15 03:33:20;;;;;;;52.67;29.67;;;;;;;0.08;80.98;97662.19;124710;1112;27392;-87
2021/03/15 03:35:48;;;;;;;56.03;27.10;;;;;;;0.12;82.05;97662.61;124689;1112;23017;-87
2021/03/15 03:38:15;;;;;;;47.57;25.97;;;;;;;0.13;82.88;97662.42;124639;1112;23024;-87
2021/03/15 03:40:42;;;;;;;57.73;28.50;;;;;;;0.14;81.71;97665.91;124670;1112;24671;-87
2021/03/15 03:43:09;;;;;;;59.53;31.13;;;;;;;0.13;83.17;97659.74;124532;1111;23219;-87
2021/03/15 03:45:35;;;;;;;63.55;33.80;;;;;;;0.17;82.55;97666.34;124600;1112;26243;-87
2021/03/15 03:48:03;;;;;;;57.87;29.30;;;;;;;0.20;82.43;97662.46;124635;1112;27445;-87
2021/03/15 03:50:33;;;;;;;55.10;27.95;;;;;;;0.27;83.29;97665.18;124653;1111;22990;-87
2021/03/15 03:53:11;;;;;;;61.07;29.37;;;;;;;0.30;82.46;97664.76;124669;1111;22995;-87
2021/03/15 03:55:53;;;;;;;61.43;30.53;;;;;;;0.34;83.50;97669.53;124673;1112;23045;-87
2021/03/15 03:58:23;;;;;;;66.23;34.07;;;;;;;0.40;82.86;97665.22;124627;1112;24619;-87
2021/03/15 04:00:56;;;;;;;59.40;29.90;;;;;;;0.46;81.83;97668.95;124650;1112;23061;-87
2021/03/15 04:03:27;;;;;;;55.67;27.93;;;;;;;0.50;83.00;97660.32;124610;1112;23205;-87
2021/03/15 04:06:14;;;;;;;60.30;30.73;;;;;;;0.53;82.87;97659.08;124601;1112;23229;-87
2021/03/15 04:09:00;;;;;;;62.67;29.80;;;;;;;0.54;82.76;97658.89;124729;1112;23074;-87
2021/03/15 04:11:30;;;;;;;63.50;32.60;;;;;;;0.54;81.69;97658.89;124688;1112;23034;-87
2021/03/15 04:13:59;;;;;;;63.70;31.47;;;;;;;0.54;81.72;97655.39;124668;1112;26207;-87
2021/03/15 04:16:32;;;;;;;49.05;26.82;;;;;;;0.52;81.51;97650.23;124683;1112;23125;-87
2021/03/15 04:19:03;;;;;;;53.07;27.97;;;;;;;0.52;82.32;97650.23;124692;1112;26409;-87
2021/03/15 04:21:33;;;;;;;59.73;30.47;;;;;;;0.53;82.01;97643.02;124654;1111;24755;-87
2021/03/15 04:24:01;;;;;;;64.10;34.63;;;;;;;0.54;83.32;97648.17;124759;1112;23788;-87
2021/03/15 04:26:33;;;;;;;57.43;31.40;;;;;;;0.58;82.71;97645.91;124749;1112;27663;-87
2021/03/15 04:29:02;;;;;;;63.80;30.07;;;;;;;0.60;82.00;97646.53;124663;1112;23082;-87
2021/03/15 04:31:30;;;;;;;56.90;29.05;;;;;;;0.63;82.92;97653.36;124678;1111;23226;-87
2021/03/15 04:33:56;;;;;;;51.40;27.43;;;;;;;0.62;82.21;97646.34;124672;1112;23067;-87
2021/03/15 04:36:24;;;;;;;55.83;28.47;;;;;;;0.61;82.67;97644.70;124700;1112;26205;-87
2021/03/15 04:38:52;;;;;;;64.17;32.23;;;;;;;0.58;81.12;97653.13;124703;1111;26106;-87
2021/03/15 04:41:19;;;;;;;64.30;31.17;;;;;;;0.58;82.74;97643.23;124664;1111;23107;-87
2021/03/15 04:43:49;;;;;;;52.87;27.10;;;;;;;0.61;82.07;97648.20;124670;1111;23056;-87
2021/03/15 04:46:20;;;;;;;49.67;26.30;;;;;;;0.63;83.04;97643.46;124647;1112;23015;-87
2021/03/15 04:48:48;;;;;;;50.70;27.57;;;;;;;0.62;82.70;97644.51;124676;1111;23241;-87
2021/03/15 04:51:18;;;;;;;54.90;28.35;;;;;;;0.62;83.05;97649.02;124649;1111;23006;-87
2021/03/15 04:53:45;;;;;;;59.03;31.10;;;;;;;0.62;82.57;97646.34;124796;1112;27329;-88
2021/03/15 04:56:18;;;;;;;59.00;30.23;;;;;;;0.69;83.23;97641.82;124684;1112;23024;-87
2021/03/15 04:58:51;;;;;;;51.67;27.53;;;;;;;0.72;82.48;97650.28;124761;1112;26134;-87
2021/03/15 05:01:19;;;;;;;53.17;28.57;;;;;;;0.79;83.05;97647.63;124765;1112;22990;-87
2021/03/15 05:03:50;;;;;;;51.83;27.35;;;;;;;0.84;83.59;97639.81;124733;1111;23067;-87
2021/03/15 05:06:18;;;;;;;55.87;27.40;;;;;;;0.90;81.81;97648.88;124620;1112;23202;-87
2021/03/15 05:08:54;;;;;;;61.77;30.87;;;;;;;0.94;81.76;97647.47;124636;1112;23170;-87
2021/03/15 05:11:27;;;;;;;60.83;28.30;;;;;;;0.97;82.24;97643.55;124735;1112;27367;-87
2021/03/15 05:13:54;;;;;;;45.07;23.70;;;;;;;1.01;81.76;97644.78;124717;1112;23079;-86
2021/03/15 05:16:22;;;;;;;50.83;25.73;;;;;;;1.03;82.33;97648.92;124686;1111;24480;-87
2021/03/15 05:18:52;;;;;;;48.87;26.43;;;;;;;1.04;82.41;97647.88;124657;1112;23034;-87
2021/03/15 05:21:21;;;;;;;52.37;26.00;;;;;;;1.06;82.30;97645.84;124641;1112;24844;-87
2021/03/15 05:23:49;;;;;;;55.05;27.85;;;;;;;1.08;81.01;97646.45;124777;1112;24859;-87
2021/03/15 05:26:17;;;;;;;56.97;28.50;;;;;;;1.12;81.71;97644.19;124680;1112;24729;-86
2021/03/15 05:28:47;;;;;;;46.03;24.73;;;;;;;1.17;82.34;97635.52;124602;1112;23241;-86
2021/03/15 05:31:17;;;;;;;54.60;25.37;;;;;;;1.20;81.87;97638.61;124864;1112;23126;-86
2021/03/15 05:33:44;;;;;;;;;;;;;;;1.24;81.85;97631.83;124925;1112;23028;-86
2021/03/15 05:36:13;;;;;;;51.37;26.87;;;;;;;1.28;81.19;97642.97;124962;1112;21529;-87
2021/03/15 05:38:40;;;;;;;46.50;25.33;;;;;;;1.25;81.83;97633.46;124775;1112;24636;-87
2021/03/15 05:41:13;;;;;;;56.63;28.87;;;;;;;1.29;81.34;97637.41;124923;1112;26386;-86
2021/03/15 05:44:12;;;;;;;59.27;29.03;;;;;;;1.32;82.21;97636.97;125011;1112;26463;-86
2021/03/15 05:47:17;;;;;;;47.10;25.37;;;;;;;1.37;81.05;97639.05;124761;1112;23050;-86
2021/03/15 05:49:54;;;;;;;53.73;25.20;;;;;;;1.39;81.30;97642.34;124964;1112;27357;-86
2021/03/15 05:52:46;;;;;;;50.67;26.30;;;;;;;1.41;81.48;97636.77;124991;1112;23099;-87
2021/03/15 05:55:34;;;;;;;50.85;26.10;;;;;;;1.47;81.58;97643.98;124937;1112;23089;-86
2021/03/15 05:58:03;;;;;;;56.60;28.17;;;;;;;1.50;80.70;97641.70;124938;1112;23455;-86
2021/03/15 06:00:54;;;;;;;60.33;28.95;;;;;;;1.56;81.65;97647.28;124889;1112;24410;-85
2021/03/15 06:03:58;;;;;;;49.00;25.50;;;;;;;1.61;81.68;97651.02;125028;1112;23056;-86
2021/03/15 06:06:35;;;;;;;52.07;25.87;;;;;;;1.65;80.69;97654.92;124976;1112;23235;-86
2021/03/15 06:09:03;;;;;;;53.70;28.03;;;;;;;1.68;81.38;97645.62;124913;1112;23025;-86
2021/03/15 06:12:01;;;;;;;61.00;30.93;;;;;;;1.70;80.45;97652.45;125040;1112;23164;-86
2021/03/15 06:14:30;;;;;;;62.17;31.87;;;;;;;1.73;80.60;97653.06;125117;1112;23164;-86
2021/03/15 06:16:57;;;;;;;59.27;29.03;;;;;;;1.76;80.77;97653.47;124946;1112;23038;-85
2021/03/15 06:19:24;;;;;;;54.60;27.23;;;;;;;1.82;80.94;97657.17;125029;1112;27756;-86
2021/03/15 06:21:56;;;;;;;53.47;28.57;;;;;;;1.82;80.15;97657.17;125088;1111;26412;-85
2021/03/15 06:24:23;;;;;;;57.95;28.80;;;;;;;1.80;80.05;97661.92;124977;1111;26376;-85
2021/03/15 06:26:50;;;;;;;56.20;27.43;;;;;;;1.76;80.10;97652.65;124965;1111;23089;-85
2021/03/15 06:29:18;;;;;;;57.83;27.97;;;;;;;1.72;79.38;97652.24;124943;1112;23022;-85
2021/03/15 06:31:50;;;;;;;60.10;31.55;;;;;;;1.72;80.11;97649.56;125125;1111;26412;-85
2021/03/15 06:34:19;;;;;;;62.27;31.73;;;;;;;1.74;80.09;97647.48;125124;1111;22994;-85
2021/03/15 06:36:47;;;;;;;56.45;28.55;;;;;;;1.79;80.10;97646.84;125201;1111;23080;-85
2021/03/15 06:39:15;;;;;;;62.37;31.00;;;;;;;1.82;80.10;97646.44;125005;1112;27753;-85
2021/03/15 06:41:45;;;;;;;64.35;31.90;;;;;;;1.86;79.82;97647.66;125159;1111;23103;-85
2021/03/15 06:44:11;;;;;;;68.33;34.73;;;;;;;1.88;80.13;97645.61;125152;1112;24665;-85
2021/03/15 06:46:41;;;;;;;59.67;32.37;;;;;;;1.92;79.86;97641.47;125077;1111;23033;-85
2021/03/15 06:49:08;;;;;;;70.90;37.08;;;;;;;1.99;80.57;97657.57;124875;1112;24837;-84
2021/03/15 06:51:35;;;;;;;81.90;40.77;;;;;;;2.09;79.69;97647.22;125096;1111;23206;-85
2021/03/15 06:54:02;;;;;;;63.30;34.17;;;;;;;2.18;80.29;97645.10;124918;1112;23235;-85
2021/03/15 06:56:29;;;;;;;63.63;32.30;;;;;;;2.24;80.35;97638.91;124927;1111;27225;-85
2021/03/15 06:58:59;;;;;;;64.33;35.00;;;;;;;2.29;80.26;97644.47;124971;1111;23069;-85
2021/03/15 07:01:27;;;;;;;62.80;31.33;;;;;;;2.34;79.88;97647.34;124987;1112;26077;-85
2021/03/15 07:04:11;;;;;;;69.85;36.42;;;;;;;2.38;80.69;97647.74;125119;1112;23068;-85
2021/03/15 07:06:40;;;;;;;84.07;40.20;;;;;;;2.47;80.26;97652.65;124943;1110;26003;-85
2021/03/15 07:09:09;;;;;;;63.58;35.98;;;;;;;2.59;80.32;97657.38;124935;1111;23311;-85
2021/03/15 07:11:36;;;;;;;57.98;31.37;;;;;;;2.70;79.78;97650.50;124994;1112;23042;-85
2021/03/15 07:14:03;;;;;;;70.97;36.83;;;;;;;2.79;80.27;97650.02;124984;1112;23086;-85
2021/03/15 07:16:31;;;;;;;68.50;35.97;;;;;;;2.85;79.85;97646.48;125097;1111;23010;-85
2021/03/15 07:19:03;;;;;;;69.90;35.60;;;;;;;2.94;79.56;97655.13;125022;1111;23071;-85
2021/03/15 07:21:37;;;;;;;66.47;34.23;;;;;;;3.05;79.38;97648.23;124882;1111;23040;-85
2021/03/15 07:24:11;;;;;;;68.33;35.70;;;;;;;3.22;79.62;97662.81;124953;1112;23167;-85
2021/03/15 07:26:45;;;;;;;66.70;34.10;;;;;;;3.44;79.13;97656.25;124834;1112;26072;-85
2021/03/15 07:29:17;;;;;;;57.43;30.33;;;;;;;3.65;78.77;97655.86;124745;1112;24653;-85
2021/03/15 07:31:46;;;;;;;48.57;27.70;;;;;;;3.87;78.54;97658.15;124664;1112;27281;-85
2021/03/15 07:34:18;;;;;;;44.83;24.67;;;;;;;4.04;78.36;97648.45;124651;1112;23011;-85
2021/03/15 07:36:52;;;;;;;47.93;24.73;;;;;;;4.16;77.37;97651.20;124711;1111;27041;-85
2021/03/15 07:39:21;;;;;;;43.03;24.30;;;;;;;4.27;76.25;97657.75;124978;1111;23026;-85
2021/03/15 07:41:52;;;;;;;50.30;25.57;;;;;;;4.28;76.37;97657.50;124876;1111;23083;-85
2021/03/15 07:44:21;;;;;;;47.67;26.33;;;;;;;4.36;75.70;97659.91;124703;1112;24666;-85
2021/03/15 07:46:54;;;;;;;47.47;25.43;;;;;;;4.48;75.61;97668.08;124674;1111;26124;-85
2021/03/15 07:49:30;;;;;;;47.80;22.90;;;;;;;4.58;74.64;97664.84;124818;1111;23081;-85
2021/03/15 07:52:03;;;;;;;43.67;20.73;;;;;;;4.65;75.10;97665.58;125297;1112;26214;-84
2021/03/15 07:54:34;;;;;;;39.70;19.00;;;;;;;4.71;74.51;97661.14;125161;1112;23080;-85
2021/03/15 07:57:10;;;;;;;25.20;14.20;;;;;;;4.79;73.14;97666.23;124788;1111;23226;-85
2021/03/15 07:59:39;;;;;;;34.73;16.53;;;;;;;4.85;72.86;97665.34;124854;1112;22999;-85
2021/03/15 08:02:13;;;;;;;19.52;10.48;;;;;;;4.90;72.49;97673.55;125128;1111;23001;-85
2021/03/15 08:04:42;;;;;;;40.00;18.87;;;;;;;4.90;73.30;97656.55;124719;1112;24177;-84
2021/03/15 08:07:11;;;;;;;30.33;17.10;;;;;;;5.00;73.67;97659.53;124759;1112;24629;-84
2021/03/15 08:09:42;;;;;;;29.87;14.35;;;;;;;5.06;72.37;97649.69;124772;1112;27386;-83
2021/03/15 08:12:12;;;;;;;20.13;9.77;;;;;;;5.10;70.72;97657.11;124807;1111;23027;-84
2021/03/15 08:14:47;;;;;;;18.67;11.17;;;;;;;5.10;70.30;97651.71;124852;1111;23029;-83
2021/03/15 08:17:19;;;;;;;16.17;8.93;;;;;;;5.04;67.98;97659.89;124797;1112;23036;-83
2021/03/15 08:19:47;;;;;;;14.13;8.13;;;;;;;4.95;66.49;97656.69;125056;1112;23022;-85
2021/03/15 08:22:24;;;;;;;14.33;10.00;;;;;;;4.87;66.86;97668.63;124843;1111;26225;-84
2021/03/15 08:24:56;;;;;;;22.97;11.53;;;;;;;4.79;68.13;97660.03;124746;1111;23017;-84
2021/03/15 08:27:27;;;;;;;13.70;8.35;;;;;;;4.77;66.64;97665.65;124795;1111;24636;-84
2021/03/15 08:30:01;;;;;;;14.47;8.37;;;;;;;4.77;67.03;97662.95;124835;1112;23089;-84
2021/03/15 08:32:30;;;;;;;21.13;10.87;;;;;;;4.74;66.17;97664.21;124827;1111;24556;-84
2021/03/15 08:34:57;;;;;;;;;;;;;;;4.74;67.58;97658.81;124952;1111;23104;-84
2021/03/15 08:37:55;;;;;;;16.50;8.63;;;;;;;4.72;68.20;97654.72;124845;1111;21537;-84
2021/03/15 08:40:44;;;;;;;16.27;9.77;;;;;;;4.70;67.38;97660.33;124985;1112;26150;-84
2021/03/15 08:43:17;;;;;;;17.52;9.60;;;;;;;4.67;66.80;97659.97;125201;1112;23235;-84
2021/03/15 08:46:07;;;;;;;28.40;12.87;;;;;;;4.72;67.65;97663.63;124873;1111;23089;-84
2021/03/15 08:48:38;;;;;;;17.00;10.30;;;;;;;4.79;68.49;97665.42;124813;1111;23600;-84
2021/03/15 08:51:04;;;;;;;;;;;;;;;4.89;67.80;97657.62;124889;1112;23103;-84
2021/03/15 08:53:37;;;;;;;24.53;12.80;;;;;;;4.98;66.55;97658.94;124778;1112;21671;-84
2021/03/15 08:56:10;;;;;;;19.23;11.47;;;;;;;5.10;66.96;97651.71;124803;1111;23229;-84
2021/03/15 08:58:50;;;;;;;17.43;10.57;;;;;;;5.23;67.01;97657.97;124812;1111;23022;-84
2021/03/15 09:01:19;;;;;;;22.63;12.27;;;;;;;5.31;66.40;97649.52;124788;1112;23081;-84
2021/03/15 09:03:47;;;;;;;;;;;;;;;5.41;66.85;97648.97;124746;1111;24918;-84
2021/03/15 09:06:14;;;;;;;21.83;12.30;;;;;;;5.48;66.22;97637.00;124706;1112;21617;-84
2021/03/15 09:09:01;;;;;;;26.23;13.50;;;;;;;5.65;66.21;97637.16;124730;1112;23021;-84
2021/03/15 09:11:34;;;;;;;21.60;12.40;;;;;;;5.92;65.44;97633.17;124971;1112;23124;-84
2021/03/15 09:14:26;;;;;;;29.30;13.70;;;;;;;6.19;64.59;97625.42;124688;1110;23145;-84
2021/03/15 09:16:59;;;;;;;21.97;11.67;;;;;;;6.37;64.13;97630.66;124658;1112;23235;-83
2021/03/15 09:19:33;;;;;;;19.03;11.20;;;;;;;6.49;63.67;97625.23;124790;1111;27332;-84
2021/03/15 09:22:27;;;;;;;23.30;12.37;;;;;;;6.61;63.37;97623.32;124794;1112;27358;-84
2021/03/15 09:24:58;;;;;;;22.80;12.63;;;;;;;6.82;63.65;97610.20;124901;1112;27489;-84
2021/03/15 09:27:35;;;;;;;15.37;9.87;;;;;;;6.98;63.17;97611.31;124912;1112;23139;-84
2021/03/15 09:30:02;;;;;;;19.65;11.30;;;;;;;7.12;63.33;97614.52;124752;1112;23167;-84
2021/03/15 09:32:34;;;;;;;18.35;9.35;;;;;;;7.20;60.18;97604.11;125083;1112;23241;-84
2021/03/15 09:35:23;;;;;;;19.20;10.05;;;;;;;7.12;60.91;97606.39;124757;1111;23028;-84
2021/03/15 09:38:10;;;;;;;18.25;10.25;;;;;;;7.00;60.00;97607.28;124966;1111;23026;-84
2021/03/15 09:40:50;;;;;;;18.23;11.03;;;;;;;6.90;60.55;97606.27;124938;1112;22960;-84
2021/03/15 09:43:21;;;;;;;19.67;11.30;;;;;;;6.82;59.85;97602.08;124687;1111;24806;-83
2021/03/15 09:46:07;;;;;;;16.57;9.60;;;;;;;6.79;59.65;97591.73;124756;1112;23006;-84
2021/03/15 09:48:35;;;;;;;20.43;9.80;;;;;;;6.76;60.26;97597.63;124727;1111;23222;-83
2021/03/15 09:51:06;;;;;;;27.37;10.95;;;;;;;6.73;60.40;97600.80;124720;1111;23204;-84
2021/03/15 09:54:05;;;;;;;23.47;9.93;;;;;;;6.74;60.35;97588.93;124582;1112;23023;-84
2021/03/15 09:56:39;;;;;;;18.15;10.15;;;;;;;6.74;59.38;97597.86;124643;1112;23929;-84
2021/03/15 09:59:19;;;;;;;17.80;9.60;;;;;;;6.82;59.66;97589.37;124626;1111;23013;-84
2021/03/15 10:01:50;;;;;;;15.07;9.50;;;;;;;6.92;58.47;97591.42;124699;1112;23080;-84
2021/03/15 10:04:39;;;;;;;18.15;10.05;;;;;;;6.96;59.29;97591.79;124528;1112;23017;-84
2021/03/15 10:07:25;;;;;;;15.70;9.65;;;;;;;7.03;59.35;97582.44;124671;1112;23266;-84
2021/03/15 10:10:19;;;;;;;15.20;8.85;;;;;;;7.08;57.72;97580.88;124694;1112;23087;-84
2021/03/15 10:13:06;;;;;;;19.30;11.80;;;;;;;7.11;58.38;97580.39;124742;1112;23049;-84
2021/03/15 10:15:52;;;;;;;17.35;10.65;;;;;;;7.18;58.11;97584.58;124753;1112;23025;-84
2021/03/15 10:18:27;;;;;;;18.30;9.60;;;;;;;7.27;58.61;97578.77;124670;1112;23015;-83
2021/03/15 10:20:57;;;;;;;16.53;9.37;;;;;;;7.45;59.02;97574.99;124713;1111;23022;-85
2021/03/15 10:23:32;;;;;;;19.77;11.83;;;;;;;7.76;58.42;97568.97;124755;1112;23089;-84
2021/03/15 10:26:01;;;;;;;21.45;11.70;;;;;;;8.02;57.85;97572.06;124725;1112;27431;-84
2021/03/15 10:28:33;;;;;;;19.05;11.00;;;;;;;8.25;57.70;97572.88;124765;1112;22799;-84
2021/03/15 10:31:07;;;;;;;19.00;12.00;;;;;;;8.40;55.40;97575.78;124521;1112;23073;-84
2021/03/15 10:33:35;;;;;;;18.70;11.90;;;;;;;8.52;55.72;97575.70;124664;1112;27274;-85
2021/03/15 10:36:02;;;;;;;21.47;11.10;;;;;;;8.59;55.42;97570.05;124737;1111;23025;-85
2021/03/15 10:38:32;;;;;;;16.87;9.73;;;;;;;8.67;54.16;97575.05;124647;1112;23064;-84
2021/03/15 10:41:06;;;;;;;17.87;9.43;;;;;;;8.63;54.71;97569.30;124702;1112;23183;-84
2021/03/15 10:43:34;;;;;;;16.80;8.70;;;;;;;8.53;51.41;97567.31;124786;1112;27819;-84
2021/03/15 10:46:21;;;;;;;17.75;11.90;;;;;;;8.35;53.14;97562.97;124700;1112;27668;-84
2021/03/15 10:48:48;;;;;;;17.45;10.30;;;;;;;8.27;54.84;97563.43;124506;1111;22994;-84
2021/03/15 10:51:15;;;;;;;21.53;11.63;;;;;;;8.11;53.74;97567.00;124754;1112;23100;-84
2021/03/15 10:54:08;;;;;;;14.90;7.47;;;;;;;7.87;53.44;97559.09;124764;1111;23249;-84
2021/03/15 10:56:38;;;;;;;13.47;7.30;;;;;;;7.72;53.17;97556.16;124752;1111;23015;-84
2021/03/15 10:59:08;;;;;;;;;;;;;;;7.63;53.92;97558.47;124767;1111;22994;-83
2021/03/15 11:01:52;;;;;;;10.55;6.80;;;;;;;7.55;53.20;97556.20;124719;1110;21546;-84
2021/03/15 11:04:40;;;;;;;7.60;5.60;;;;;;;7.50;52.16;97556.11;124560;1112;27389;-84
2021/03/15 11:07:31;;;;;;;9.60;5.70;;;;;;;7.49;52.32;97546.33;124683;1112;23214;-84
2021/03/15 11:10:05;;;;;;;8.07;5.87;;;;;;;7.49;51.69;97540.91;124720;1111;23086;-83
2021/03/15 11:12:46;;;;;;;;;;;;;;;7.47;52.17;97543.90;124710;1111;26392;-84
2021/03/15 11:15:39;;;;;;;11.20;7.27;;;;;;;7.43;53.03;97540.02;124724;1112;21524;-84
2021/03/15 11:18:26;;;;;;;11.95;7.10;;;;;;;7.41;52.36;97536.75;124794;1112;24808;-84
2021/03/15 11:21:00;;;;;;;13.30;6.60;;;;;;;7.45;52.71;97539.78;124666;1112;27657;-84
2021/03/15 11:23:46;;;;;;;11.03;7.27;;;;;;;7.43;52.46;97541.92;124523;1112;26440;-84
2021/03/15 11:26:26;;;;;;;11.75;6.25;;;;;;;7.40;52.68;97535.09;124641;1112;27473;-84
2021/03/15 11:28:56;;;;;;;12.70;6.10;;;;;;;7.39;52.38;97533.47;124761;1112;23120;-84
2021/03/15 11:31:27;;;;;;;10.55;5.70;;;;;;;7.44;53.00;97528.13;124767;1112;26405;-84
2021/03/15 11:34:00;;;;;;;10.65;5.65;;;;;;;7.51;52.95;97527.97;124856;1111;23015;-85
2021/03/15 11:36:49;;;;;;;12.70;5.50;;;;;;;7.53;51.54;97523.12;124728;1112;23348;-83
2021/03/15 11:39:24;;;;;;;6.50;4.10;;;;;;;7.61;51.97;97517.25;124740;1112;23222;-84
2021/03/15 11:42:31;;;;;;;10.13;6.13;;;;;;;7.63;52.21;97515.11;124669;1111;26455;-84
2021/03/15 11:45:02;;;;;;;8.38;5.30;;;;;;;7.65;51.20;97518.42;124675;1112;26042;-85
2021/03/15 11:47:33;;;;;;;11.40;5.35;;;;;;;7.73;51.32;97503.61;124585;1111;27416;-84